Terminal Aerodrome Forecast
Issued by NWS

Home | Current Version | Previous Version | Graphics & Text | Print | Product List | Glossary On
Versions: 1 2 3 4 5 6 7 8 9 10 11 12 13
000
FTUS43 KBIS 211700
TAFJMS
TAF
KJMS 211739Z 2118/2218 20010KT P6SM BKN200
     FM212200 21014KT P6SM SKC
     FM220600 24010KT P6SM SCT040 BKN150=

USA.gov is the U.S. government's official web portal to all federal, state and local government web resources and services.